Aérodrome :
LOGIN :

S'inscrire | Disclaimer

   EN    FR    IT 

 










Légende :    VFR   VFR Marginal   IFR   IFR Intensif   IFR Très Intensif
Visi : 
Plafond : 
>= 8 km
>= 3000ft
5 à 8 km
1000 à 3000 ft
1500m à 5 km
500 à 1000 ft
800 à 1500m
200 à 500 ft
< 800m
< 200 ft
Symboles :   Orages  Brouillard  Fortes neiges  Fortes précipitations  Vent > 20 kt
SIGMETs :   Divers  Orages  Givrage  Turbulence  Onde Orograph.  Cendres Volcan.







- Altitude de l'aérodrome : 101 ft
- Code IATA : GLO
- Voir les cartes d'approche


EGBJ - Gloucestershire

DERNIER METAR :
  • 210950Z 18010KT 9000 -RA FEW005 BKN015 03/02 Q1011

METARs EXPIRÉS :
  • 210920Z 17008KT 150V210 9000 -RA FEW009 BKN020 03/02 Q1012
  • 210850Z 16007KT 9000 -RA SCT009 OVC018 03/02 Q1012
  • 210820Z 17003KT 8000 -RA FEW008 OVC015 03/02 Q1013

TAF TAF EGBJ
Valide du 21 à 09h jusqu'au 21 à 18h UTC


210905Z 2109/2118 16008KT 7000 -RA SCT008
BECMG 2109/2112 BKN005
TEMPO 2110/2115 3000 RADZ OVC004
Pas de NOTAMs connus pour ce terrain.
1 SIGMET publié pour la FIR London (EGTT) :
 
Givrage fort
EGTT SIGMET 03 VALID 210715/211115 EGRR
EGTT LONDON FIR SEV ICE FCST WI N5220 W00530 - N5500 W00530 - N5500 W00303 - N5304 W00042 - N5004 W00223 - N5204 W00600 - N5220 W00530 FL020/140 MOV ESE 15KT NC=



MET'MAP, la Météo Aéronautique d'un coup d'oeil ! - Copyright ORBIFLY Décembre 2007 - Disclaimer

ORBIFLY MET'MAP TEAM :

Programmation & Développement : Alexandra Zaïnal
Conception & Développement : Baudouin d'Aumeries
Co-Programmation & Développement : Marc-Olivier Méhu
Soutien technique & logistique : Manuel Goepfert

Contact : metmap@orbifly.com




SOURCES & CREDITS :

   NOAA